Time;durP1;ratioP1;P1;durP2;ratioP2;P2;SDS_P1;SDS_P2;PMS_P1;PMS_P2;Temp;Humidity;BMP_temperature;BMP_pressure;BME280_temperature;BME280_humidity;BME280_pressure;Samples;Min_cycle;Max_cycle;Signal;HPM_P1;HPM_P2
2023/12/19 00:00:05;;;;;;;0.20;0.20;;;;;;;8.82;50.23;102448.25;4959794;28;20113;-91
2023/12/19 00:02:30;;;;;;;0.20;0.20;;;;;;;8.95;49.80;102454.16;4959216;28;20421;-92
2023/12/19 00:04:56;;;;;;;0.20;0.20;;;;;;;8.93;49.96;102440.38;4959819;28;20041;-92
2023/12/19 00:07:21;;;;;;;0.20;0.20;;;;;;;8.86;50.39;102441.34;4976170;28;20031;-89
2023/12/19 00:09:48;;;;;;;0.20;0.20;;;;;;;8.76;50.66;102432.88;4975999;28;20033;-91
2023/12/19 00:12:13;;;;;;;0.20;0.20;;;;;;;8.82;50.02;102435.34;4960285;28;20037;-91
2023/12/19 00:14:39;;;;;;;0.20;0.20;;;;;;;8.88;50.51;102437.88;4959453;28;20031;-94
2023/12/19 00:17:04;;;;;;;0.20;0.20;;;;;;;8.80;50.28;102438.84;4943707;28;20077;-90
2023/12/19 00:19:30;;;;;;;0.20;0.20;;;;;;;8.76;50.38;102437.19;4993112;28;20026;-91
2023/12/19 00:21:56;;;;;;;0.10;0.10;;;;;;;8.72;50.62;102436.34;4959725;28;20038;-93
2023/12/19 00:24:21;;;;;;;0.20;0.20;;;;;;;8.78;50.70;102438.88;4943529;28;20030;-92
2023/12/19 00:26:47;;;;;;;0.20;0.20;;;;;;;8.76;50.64;102438.03;4943627;28;20027;-91
2023/12/19 00:29:13;;;;;;;0.20;0.20;;;;;;;8.71;51.02;102444.97;4975261;28;20077;-89
2023/12/19 00:31:39;;;;;;;0.20;0.20;;;;;;;8.74;50.87;102438.91;4975648;28;20069;-90
2023/12/19 00:34:05;;;;;;;0.10;0.10;;;;;;;8.80;50.94;102447.44;4992845;28;20058;-91
2023/12/19 00:36:30;;;;;;;0.10;0.10;;;;;;;8.76;50.89;102447.50;4959697;28;20022;-90
2023/12/19 00:38:56;;;;;;;0.20;0.20;;;;;;;8.78;50.97;102445.75;4975505;28;20034;-91
2023/12/19 00:41:21;;;;;;;0.20;0.20;;;;;;;8.77;50.93;102433.72;4959482;28;20022;-92
2023/12/19 00:43:47;;;;;;;0.20;0.20;;;;;;;8.85;50.69;102449.97;4975158;28;20120;-91
2023/12/19 00:46:12;;;;;;;0.20;0.20;;;;;;;8.74;51.31;102451.81;4975577;28;20440;-91
2023/12/19 00:48:38;;;;;;;0.20;0.20;;;;;;;8.64;51.26;102451.06;4959288;28;20126;-91
2023/12/19 00:51:08;;;;;;;0.20;0.20;;;;;;;8.58;51.58;102453.72;4975452;28;20058;-92
2023/12/19 00:53:34;;;;;;;0.20;0.20;;;;;;;8.61;51.98;102458.84;4959315;28;20030;-90
2023/12/19 00:55:59;;;;;;;0.20;0.20;;;;;;;8.56;51.97;102445.16;4943048;28;20038;-90
2023/12/19 00:58:25;;;;;;;0.10;0.10;;;;;;;8.61;51.85;102449.38;4958740;28;20030;-91
2023/12/19 01:00:50;;;;;;;0.20;0.20;;;;;;;8.64;51.92;102435.59;4975205;28;20492;-92
2023/12/19 01:03:16;;;;;;;0.20;0.20;;;;;;;8.69;51.78;102438.13;4974973;28;20544;-91
2023/12/19 01:05:43;;;;;;;0.20;0.20;;;;;;;8.53;51.64;102425.38;4975406;28;20041;-92
2023/12/19 01:08:09;;;;;;;0.20;0.20;;;;;;;8.58;52.39;102444.25;4975380;28;20104;-90
2023/12/19 01:10:34;;;;;;;0.10;0.10;;;;;;;8.52;52.17;102428.84;4992131;28;20030;-91
2023/12/19 01:13:00;;;;;;;0.20;0.20;;;;;;;8.56;52.71;102429.69;4975073;28;20061;-90
2023/12/19 01:15:25;;;;;;;0.20;0.20;;;;;;;8.39;52.46;102416.13;4974995;28;20034;-92
2023/12/19 01:17:51;;;;;;;0.13;0.13;;;;;;;8.49;52.76;102433.19;4990971;28;20026;-90
2023/12/19 01:20:17;;;;;;;0.20;0.20;;;;;;;8.47;52.78;102435.81;4959063;28;20034;-89
2023/12/19 01:22:42;;;;;;;0.20;0.20;;;;;;;8.52;52.85;102435.72;4975013;28;20026;-89
2023/12/19 01:25:08;;;;;;;0.10;0.10;;;;;;;8.54;52.73;102429.69;4975200;28;20066;-91
2023/12/19 01:27:33;;;;;;;0.20;0.20;;;;;;;8.43;52.87;102418.63;4974631;28;20023;-92
2023/12/19 01:29:59;;;;;;;0.20;0.20;;;;;;;8.40;53.02;102417.81;4974635;28;20030;-89
2023/12/19 01:32:24;;;;;;;0.13;0.13;;;;;;;8.36;53.22;102410.97;4958499;28;20081;-89
2023/12/19 01:34:50;;;;;;;0.20;0.20;;;;;;;8.51;53.05;102405.66;4974862;28;20069;-89
2023/12/19 01:37:15;;;;;;;0.20;0.20;;;;;;;8.55;52.69;102409.88;4975242;28;20030;-91
2023/12/19 01:39:41;;;;;;;0.20;0.20;;;;;;;8.54;52.69;102413.34;4974638;28;20503;-89
2023/12/19 01:42:06;;;;;;;0.20;0.20;;;;;;;8.56;52.77;102415.06;4958463;28;20485;-89
2023/12/19 01:44:32;;;;;;;0.20;0.20;;;;;;;8.52;52.64;102415.09;4974624;28;20037;-90
2023/12/19 01:46:57;;;;;;;0.20;0.20;;;;;;;8.52;52.78;102404.78;4958754;28;20030;-92
2023/12/19 01:49:23;;;;;;;0.20;0.20;;;;;;;8.51;52.70;102396.19;4958615;28;20063;-92
2023/12/19 01:51:48;;;;;;;0.20;0.20;;;;;;;8.43;52.69;102382.53;4958775;28;20022;-92
2023/12/19 01:54:14;;;;;;;0.20;0.20;;;;;;;8.56;52.68;102409.91;4974748;28;20031;-89
2023/12/19 01:56:39;;;;;;;0.20;0.20;;;;;;;8.50;52.96;102399.63;4958399;28;20041;-91
2023/12/19 01:59:06;;;;;;;0.20;0.20;;;;;;;8.57;52.84;102413.34;4958684;28;20026;-91
2023/12/19 02:01:35;;;;;;;0.10;0.10;;;;;;;8.62;52.51;102396.06;4942898;28;20030;-90
2023/12/19 02:04:01;;;;;;;0.20;0.20;;;;;;;8.72;52.09;102400.22;4958669;28;20061;-90
2023/12/19 02:06:26;;;;;;;0.20;0.20;;;;;;;8.73;52.50;102406.22;4958622;28;20066;-90
2023/12/19 02:08:52;;;;;;;0.20;0.20;;;;;;;8.79;52.07;102406.16;4958679;28;20113;-91
2023/12/19 02:11:18;;;;;;;0.20;0.20;;;;;;;8.77;51.86;102403.63;4958207;28;20504;-90
2023/12/19 02:13:44;;;;;;;0.20;0.20;;;;;;;8.80;51.87;102388.06;4974596;28;20028;-90
2023/12/19 02:16:09;;;;;;;0.20;0.20;;;;;;;8.87;52.24;102394.03;4958583;28;20040;-92
2023/12/19 02:18:35;;;;;;;0.20;0.20;;;;;;;8.88;51.72;102398.31;4974322;28;20475;-90
2023/12/19 02:21:01;;;;;;;0.20;0.20;;;;;;;8.74;52.06;102380.41;4958454;28;20117;-93
2023/12/19 02:23:26;;;;;;;0.20;0.20;;;;;;;8.78;51.93;102400.16;4974322;28;20165;-91
2023/12/19 02:25:52;;;;;;;0.20;0.20;;;;;;;8.72;52.78;102399.38;4990621;28;20074;-91
2023/12/19 02:28:18;;;;;;;0.20;0.20;;;;;;;8.63;52.72;102402.91;4994690;28;20546;-89
2023/12/19 02:30:43;;;;;;;0.20;0.20;;;;;;;8.50;53.58;102398.78;4977828;28;20551;-91
2023/12/19 02:33:09;;;;;;;0.10;0.10;;;;;;;8.36;53.07;102385.19;4977878;28;20435;-90
2023/12/19 02:35:34;;;;;;;0.20;0.20;;;;;;;8.42;53.42;102392.88;4977797;28;20037;-90
2023/12/19 02:38:00;;;;;;;0.20;0.20;;;;;;;8.40;53.69;102384.28;4961738;28;20096;-91
2023/12/19 02:40:26;;;;;;;0.20;0.20;;;;;;;8.54;53.45;102403.03;4977123;28;20061;-91
2023/12/19 02:42:51;;;;;;;0.20;0.20;;;;;;;8.71;53.06;102403.69;4977780;28;20510;-90
2023/12/19 02:45:17;;;;;;;0.20;0.20;;;;;;;8.72;53.27;102394.22;4961499;28;20029;-91
2023/12/19 02:47:43;;;;;;;0.20;0.20;;;;;;;8.66;53.35;102378.81;4977565;28;20030;-89
2023/12/19 02:50:08;;;;;;;0.20;0.20;;;;;;;8.72;52.67;102381.31;4977451;28;20034;-90
2023/12/19 02:52:34;;;;;;;0.20;0.20;;;;;;;8.78;52.60;102374.34;4977661;28;20124;-91
2023/12/19 02:54:59;;;;;;;0.20;0.20;;;;;;;8.78;52.62;102383.81;4977165;28;20113;-89
2023/12/19 02:57:25;;;;;;;0.20;0.20;;;;;;;8.84;52.26;102379.41;4961202;28;20501;-93
2023/12/19 02:59:50;;;;;;;0.20;0.20;;;;;;;8.87;52.33;102371.66;4961197;28;20037;-91
2023/12/19 03:02:16;;;;;;;0.20;0.20;;;;;;;8.80;52.46;102382.91;4977038;28;20030;-91
2023/12/19 03:04:42;;;;;;;0.20;0.20;;;;;;;8.85;52.57;102375.13;4961140;28;20026;-90
2023/12/19 03:07:08;;;;;;;0.20;0.20;;;;;;;8.83;52.49;102374.28;4961326;28;20484;-90
2023/12/19 03:09:34;;;;;;;0.20;0.20;;;;;;;8.82;52.49;102365.69;4960866;28;20026;-90
2023/12/19 03:12:08;;;;;;;0.20;0.20;;;;;;;8.84;52.40;102371.66;4960964;28;20552;-91
2023/12/19 03:14:34;;;;;;;0.20;0.20;;;;;;;8.81;52.43;102363.97;4961707;28;20030;-92
2023/12/19 03:17:00;;;;;;;0.20;0.20;;;;;;;8.81;52.35;102370.88;4945126;28;20477;-89
2023/12/19 03:19:26;;;;;;;0.20;0.20;;;;;;;8.66;52.91;102377.09;4977077;28;20117;-92
2023/12/19 03:21:51;;;;;;;0.20;0.20;;;;;;;8.62;52.83;102373.69;4977050;28;20105;-86
2023/12/19 03:24:17;;;;;;;0.20;0.20;;;;;;;8.67;52.76;102376.22;4976913;28;20030;-92
2023/12/19 03:26:42;;;;;;;0.20;0.20;;;;;;;8.66;52.74;102360.75;4976827;28;20045;-90
2023/12/19 03:29:08;;;;;;;0.20;0.20;;;;;;;8.56;53.44;102383.25;4993076;28;20027;-90
2023/12/19 03:31:34;;;;;;;0.20;0.20;;;;;;;8.42;53.63;102372.22;4976701;28;20097;-91
2023/12/19 03:34:01;;;;;;;0.20;0.20;;;;;;;8.48;53.92;102377.31;4960733;28;20084;-91
2023/12/19 03:36:27;;;;;;;0.20;0.20;;;;;;;8.31;54.41;102375.75;4976864;28;20023;-90
2023/12/19 03:38:52;;;;;;;0.20;0.20;;;;;;;8.29;54.19;102384.41;4976901;28;20040;-90
2023/12/19 03:41:18;;;;;;;0.20;0.20;;;;;;;8.15;54.51;102375.94;4976690;28;20030;-92
2023/12/19 03:43:43;;;;;;;0.20;0.20;;;;;;;8.03;54.79;102372.63;4960229;28;20070;-90
2023/12/19 03:46:10;;;;;;;0.20;0.20;;;;;;;8.01;55.21;102378.69;4960308;28;20081;-90
2023/12/19 03:48:35;;;;;;;0.20;0.20;;;;;;;7.96;55.46;102381.31;4976490;28;20032;-90
2023/12/19 03:51:01;;;;;;;0.20;0.20;;;;;;;7.89;55.41;102379.66;4976304;28;20034;-90
2023/12/19 03:53:27;;;;;;;0.20;0.20;;;;;;;7.87;55.47;102383.13;4976479;28;20030;-91
2023/12/19 03:55:55;;;;;;;0.20;0.20;;;;;;;7.85;55.41;102383.13;4960274;28;20026;-92
2023/12/19 03:58:21;;;;;;;0.10;0.10;;;;;;;7.92;55.51;102378.78;4960433;28;20030;-90
2023/12/19 04:00:48;;;;;;;0.20;0.20;;;;;;;8.00;55.57;102376.97;4960346;28;20030;-90
2023/12/19 04:03:13;;;;;;;0.20;0.20;;;;;;;8.00;55.22;102374.41;4960091;28;20030;-87
2023/12/19 04:05:39;;;;;;;0.20;0.20;;;;;;;8.02;55.58;102370.94;4974927;28;20030;-85
2023/12/19 04:08:05;;;;;;;0.20;0.20;;;;;;;8.02;55.37;102358.03;4975397;28;20134;-85
2023/12/19 04:10:30;;;;;;;0.20;0.20;;;;;;;8.12;54.67;102363.94;4974801;28;20091;-86
2023/12/19 04:12:56;;;;;;;0.20;0.20;;;;;;;8.34;54.50;102373.16;4975233;28;20026;-90
2023/12/19 04:15:22;;;;;;;0.20;0.20;;;;;;;8.46;53.92;102371.34;4959647;28;20030;-89
2023/12/19 04:17:47;;;;;;;0.20;0.20;;;;;;;8.50;54.06;102378.16;4975972;28;20034;-90
2023/12/19 04:20:13;;;;;;;0.20;0.20;;;;;;;8.42;54.31;102390.28;4959371;28;20515;-89
2023/12/19 04:22:38;;;;;;;0.20;0.20;;;;;;;8.46;53.66;102392.81;4975825;28;20408;-89
2023/12/19 04:25:05;;;;;;;0.10;0.10;;;;;;;8.35;53.87;102374.03;4975427;28;20085;-89
2023/12/19 04:27:30;;;;;;;0.20;0.20;;;;;;;8.47;53.76;102384.22;4975177;28;20440;-89
2023/12/19 04:29:56;;;;;;;0.20;0.20;;;;;;;8.48;53.95;102390.22;4943512;28;20026;-90
2023/12/19 04:32:22;;;;;;;0.20;0.20;;;;;;;8.47;54.12;102393.69;4975429;28;20054;-90
2023/12/19 04:34:48;;;;;;;0.20;0.20;;;;;;;8.48;53.96;102392.81;4975294;28;20113;-89
2023/12/19 04:37:13;;;;;;;0.20;0.20;;;;;;;8.47;54.00;102383.38;4973293;28;20488;-86
2023/12/19 04:39:39;;;;;;;0.20;0.20;;;;;;;8.47;53.86;102389.38;4958213;28;20037;-86
2023/12/19 04:42:07;;;;;;;0.20;0.20;;;;;;;8.54;53.66;102390.13;4974178;28;20035;-88
2023/12/19 04:44:33;;;;;;;0.10;0.10;;;;;;;8.33;54.35;102371.44;4974310;28;20030;-88
2023/12/19 04:46:59;;;;;;;0.20;0.20;;;;;;;8.26;54.25;102356.94;4990345;28;20061;-86
2023/12/19 04:49:25;;;;;;;0.20;0.20;;;;;;;8.44;53.89;102388.53;4973254;28;20041;-88
2023/12/19 04:51:51;;;;;;;0.10;0.10;;;;;;;8.40;54.17;102372.25;4958141;28;20030;-87
2023/12/19 04:54:17;;;;;;;0.20;0.20;;;;;;;8.51;53.77;102375.56;4957558;28;20026;-88
2023/12/19 04:56:42;;;;;;;0.20;0.20;;;;;;;8.63;53.44;102390.03;4990387;28;20105;-87
2023/12/19 04:59:08;;;;;;;0.20;0.20;;;;;;;8.63;53.31;102390.03;4974270;28;20385;-88
2023/12/19 05:01:34;;;;;;;0.20;0.20;;;;;;;8.69;53.24;102384.78;4974047;28;20031;-88
2023/12/19 05:03:59;;;;;;;0.20;0.20;;;;;;;8.71;53.21;102387.34;4973379;28;20030;-88
2023/12/19 05:06:25;;;;;;;0.20;0.20;;;;;;;8.60;53.43;102392.66;4958019;28;20504;-87
2023/12/19 05:08:51;;;;;;;0.20;0.20;;;;;;;8.53;53.68;102396.16;4973846;28;20080;-88
2023/12/19 05:11:16;;;;;;;0.20;0.20;;;;;;;8.49;53.64;102391.94;4973850;28;20503;-91
2023/12/19 05:13:42;;;;;;;0.20;0.20;;;;;;;8.43;53.94;102384.25;4990299;28;20034;-86
2023/12/19 05:16:15;;;;;;;0.20;0.20;;;;;;;8.42;54.24;102382.53;4952688;28;20045;-86
2023/12/19 05:18:41;;;;;;;0.20;0.20;;;;;;;8.48;54.28;102396.22;4957501;28;20037;-88
2023/12/19 05:21:10;;;;;;;0.20;0.20;;;;;;;8.51;53.94;102396.19;4974633;28;20057;-82
2023/12/19 05:23:36;;;;;;;0.20;0.20;;;;;;;8.40;54.26;102395.47;4958149;28;20030;-91
2023/12/19 05:26:05;;;;;;;0.20;0.20;;;;;;;8.44;54.41;102398.84;4974170;28;20037;-87
2023/12/19 05:28:31;;;;;;;0.20;0.20;;;;;;;8.43;54.26;102392.84;4958418;28;20058;-89
2023/12/19 05:30:57;;;;;;;0.20;0.20;;;;;;;8.42;54.05;102395.44;4990521;28;20085;-91
2023/12/19 05:33:26;;;;;;;0.20;0.20;;;;;;;8.39;53.99;102391.19;4977794;28;20038;-91
2023/12/19 05:35:52;;;;;;;0.20;0.20;;;;;;;8.31;54.03;102373.19;4961945;28;20030;-85
2023/12/19 05:38:18;;;;;;;0.20;0.20;;;;;;;8.35;54.26;102386.91;4959387;28;20057;-92
2023/12/19 05:40:44;;;;;;;0.20;0.20;;;;;;;8.30;54.18;102394.69;4945934;28;20479;-92
2023/12/19 05:43:10;;;;;;;0.20;0.20;;;;;;;8.25;54.35;102380.13;4958004;28;20033;-91
2023/12/19 05:45:35;;;;;;;0.20;0.20;;;;;;;8.28;54.33;102398.16;4989161;28;20053;-82
2023/12/19 05:48:01;;;;;;;0.20;0.20;;;;;;;8.09;54.64;102361.41;4973723;28;20034;-83
2023/12/19 05:50:26;;;;;;;0.20;0.20;;;;;;;8.18;54.24;102381.09;4989050;28;20038;-83
2023/12/19 05:52:52;;;;;;;0.20;0.20;;;;;;;8.26;54.66;102395.59;4970607;28;20030;-87
2023/12/19 05:55:19;;;;;;;0.20;0.20;;;;;;;8.27;54.29;102397.31;4968274;28;20027;-92
2023/12/19 05:57:45;;;;;;;0.28;0.20;;;;;;;8.28;54.62;102393.84;4963179;28;20034;-85
2023/12/19 06:00:11;;;;;;;0.20;0.20;;;;;;;8.28;54.68;102390.44;4969039;28;20042;-90
2023/12/19 06:02:37;;;;;;;0.20;0.20;;;;;;;8.14;55.33;102381.97;4950585;28;20030;-87
2023/12/19 06:05:07;;;;;;;0.20;0.20;;;;;;;8.05;55.46;102386.34;4956464;28;20034;-85
2023/12/19 06:07:35;;;;;;;0.20;0.20;;;;;;;7.95;55.04;102384.72;4995456;28;20088;-87
2023/12/19 06:10:02;;;;;;;0.20;0.20;;;;;;;8.04;55.11;102396.69;4992524;28;20476;-84
2023/12/19 06:12:27;;;;;;;0.20;0.20;;;;;;;7.98;55.24;102399.34;4953030;28;20461;-88
2023/12/19 06:14:53;;;;;;;0.20;0.20;;;;;;;7.93;55.29;102398.50;4966501;28;20029;-88
2023/12/19 06:17:18;;;;;;;0.20;0.20;;;;;;;7.89;55.63;102384.81;4975305;28;20042;-84
2023/12/19 06:19:44;;;;;;;0.20;0.20;;;;;;;8.04;55.39;102399.25;4977763;28;20035;-86
2023/12/19 06:22:10;;;;;;;0.20;0.20;;;;;;;8.02;55.36;102390.69;4974820;28;20034;-85
2023/12/19 06:24:35;;;;;;;0.20;0.20;;;;;;;8.05;55.53;102393.22;4988252;28;20030;-89
2023/12/19 06:27:01;;;;;;;0.20;0.20;;;;;;;7.92;55.51;102382.19;4958328;28;20115;-87
2023/12/19 06:29:26;;;;;;;0.20;0.20;;;;;;;7.96;56.00;102383.00;4973639;28;20027;-87
2023/12/19 06:31:52;;;;;;;0.20;0.20;;;;;;;8.02;55.89;102390.69;4972395;28;20081;-85
2023/12/19 06:34:17;;;;;;;0.20;0.20;;;;;;;8.00;55.97;102398.44;4972467;28;20098;-85
2023/12/19 06:36:44;;;;;;;0.20;0.20;;;;;;;7.99;55.76;102383.00;4959076;28;20080;-85
2023/12/19 06:39:09;;;;;;;0.20;0.20;;;;;;;8.05;56.13;102388.06;4960125;28;20030;-92
2023/12/19 06:41:36;;;;;;;0.20;0.20;;;;;;;8.05;56.15;102382.91;4969553;28;20034;-88
2023/12/19 06:44:02;;;;;;;0.10;0.10;;;;;;;8.03;56.17;102388.09;4966413;28;20030;-84
2023/12/19 06:46:27;;;;;;;0.20;0.20;;;;;;;8.10;55.95;102385.47;4942245;28;20133;-88
2023/12/19 06:48:53;;;;;;;0.20;0.20;;;;;;;8.14;55.90;102385.41;4975876;28;20124;-88
2023/12/19 06:51:25;;;;;;;0.20;0.20;;;;;;;8.19;55.81;102393.09;4984480;28;20027;-88
2023/12/19 06:53:52;;;;;;;0.20;0.20;;;;;;;8.23;55.93;102393.03;4973664;28;20061;-87
2023/12/19 06:56:18;;;;;;;0.20;0.20;;;;;;;8.09;55.92;102371.72;4970057;28;20039;-88
2023/12/19 06:58:43;;;;;;;0.20;0.20;;;;;;;8.22;55.64;102391.34;4969825;28;20025;-90
2023/12/19 07:01:09;;;;;;;0.20;0.20;;;;;;;8.05;55.97;102370.03;4966635;28;20094;-92
2023/12/19 07:03:35;;;;;;;0.20;0.20;;;;;;;8.20;55.99;102395.66;4975891;28;20085;-86
2023/12/19 07:06:00;;;;;;;0.20;0.20;;;;;;;8.26;55.88;102390.44;4975842;28;20101;-92
2023/12/19 07:08:26;;;;;;;0.20;0.20;;;;;;;8.29;55.82;102367.19;4989275;28;20089;-91
2023/12/19 07:10:52;;;;;;;0.10;0.10;;;;;;;8.39;55.62;102385.16;4994413;28;20026;-86
2023/12/19 07:13:17;;;;;;;0.20;0.20;;;;;;;8.48;55.47;102390.22;4958921;28;20062;-86
2023/12/19 07:15:43;;;;;;;0.20;0.20;;;;;;;8.62;55.22;102384.00;4991798;28;20505;-88
2023/12/19 07:18:09;;;;;;;0.20;0.20;;;;;;;8.57;55.30;102380.66;4957457;28;20073;-87
2023/12/19 07:20:34;;;;;;;0.20;0.20;;;;;;;8.80;54.82;102380.34;4965409;28;20049;-86
2023/12/19 07:23:00;;;;;;;0.20;0.20;;;;;;;8.96;54.43;102378.41;4974908;28;20026;-91
2023/12/19 07:25:26;;;;;;;0.20;0.20;;;;;;;9.04;54.46;102375.69;4975680;28;20077;-91
2023/12/19 07:27:51;;;;;;;0.10;0.10;;;;;;;9.07;54.49;102376.50;4988143;28;20026;-88
2023/12/19 07:30:17;;;;;;;0.10;0.10;;;;;;;9.22;54.17;102374.56;4972888;28;20161;-87
2023/12/19 07:32:43;;;;;;;0.10;0.10;;;;;;;9.20;53.94;102356.50;4982694;28;21157;-84
2023/12/19 07:35:09;;;;;;;0.20;0.20;;;;;;;9.43;54.08;102369.06;4958563;28;20460;-88
2023/12/19 07:37:36;;;;;;;0.20;0.20;;;;;;;9.53;53.67;102372.34;4960880;28;20089;-88
2023/12/19 07:40:02;;;;;;;0.20;0.20;;;;;;;9.64;53.93;102370.44;4958941;28;20077;-93
2023/12/19 07:42:27;;;;;;;0.20;0.20;;;;;;;9.73;53.00;102359.91;4973921;28;20026;-86
2023/12/19 07:44:53;;;;;;;0.20;0.20;;;;;;;9.97;52.96;102366.41;4982403;28;20117;-89
2023/12/19 07:47:19;;;;;;;0.20;0.20;;;;;;;10.12;52.16;102360.06;4971817;28;20476;-88
2023/12/19 07:49:44;;;;;;;0.20;0.20;;;;;;;10.15;53.03;102349.69;4989600;28;20133;-86
2023/12/19 07:52:10;;;;;;;0.20;0.20;;;;;;;10.30;52.12;102368.34;4963588;28;20041;-86
2023/12/19 07:54:36;;;;;;;0.20;0.20;;;;;;;10.36;51.90;102364.81;4968536;28;20145;-88
2023/12/19 07:57:01;;;;;;;0.20;0.20;;;;;;;10.41;52.11;102357.78;4973398;28;20034;-92
2023/12/19 07:59:27;;;;;;;0.20;0.20;;;;;;;10.61;51.20;102365.97;4943387;28;20121;-88
2023/12/19 08:01:53;;;;;;;0.20;0.20;;;;;;;10.54;50.97;102343.72;4980981;28;20130;-92
2023/12/19 08:04:18;;;;;;;0.15;0.15;;;;;;;10.84;50.67;102369.81;4987620;28;20037;-88
2023/12/19 08:06:44;;;;;;;0.20;0.20;;;;;;;10.82;55.51;102322.41;4990536;28;20034;-89
2023/12/19 08:09:11;;;;;;;0.20;0.20;;;;;;;11.25;50.44;102362.84;4992614;28;20064;-92
2023/12/19 08:11:37;;;;;;;0.20;0.20;;;;;;;11.33;49.87;102360.91;4942984;28;20492;-85
2023/12/19 08:14:02;;;;;;;0.20;0.20;;;;;;;11.38;50.01;102356.44;4971045;28;20130;-87
2023/12/19 08:16:28;;;;;;;0.20;0.20;;;;;;;11.42;49.59;102360.69;4989724;28;20102;-90
2023/12/19 08:18:54;;;;;;;0.20;0.20;;;;;;;11.55;49.59;102367.25;4970405;28;20176;-87
2023/12/19 08:21:19;;;;;;;0.20;0.20;;;;;;;11.63;49.53;102354.94;4972727;28;20065;-84
2023/12/19 08:23:47;;;;;;;0.20;0.20;;;;;;;11.86;49.10;102371.69;4955077;28;20449;-93
2023/12/19 08:26:12;;;;;;;0.20;0.20;;;;;;;11.93;48.54;102373.22;4977193;28;20069;-87
2023/12/19 08:28:40;;;;;;;0.13;0.13;;;;;;;12.05;47.85;102371.13;4962740;28;20102;-92
2023/12/19 08:31:06;;;;;;;0.20;0.20;;;;;;;12.20;47.60;102361.25;4995482;28;20083;-90
2023/12/19 08:33:31;;;;;;;0.20;0.20;;;;;;;12.29;47.00;102364.44;4968537;28;20026;-87
2023/12/19 08:35:57;;;;;;;0.20;0.20;;;;;;;12.38;47.28;102357.25;4981004;28;20500;-90
2023/12/19 08:38:22;;;;;;;0.20;0.20;;;;;;;12.52;47.54;102355.13;4957424;28;20547;-89
2023/12/19 08:40:48;;;;;;;0.20;0.20;;;;;;;12.60;46.60;102340.16;4954536;28;20468;-89
2023/12/19 08:43:14;;;;;;;0.20;0.20;;;;;;;12.64;46.42;102344.38;4982099;28;20046;-83
2023/12/19 08:45:39;;;;;;;0.20;0.20;;;;;;;12.77;46.23;102343.09;4979569;28;20034;-90
2023/12/19 08:48:05;;;;;;;0.20;0.20;;;;;;;12.81;45.65;102344.72;4974216;28;20035;-93
2023/12/19 08:50:31;;;;;;;0.20;0.20;;;;;;;12.93;45.49;102333.94;4956105;28;20034;-86
2023/12/19 08:52:56;;;;;;;0.20;0.20;;;;;;;13.04;45.28;102328.38;4972911;28;20038;-93
2023/12/19 08:55:22;;;;;;;0.20;0.20;;;;;;;13.14;44.77;102331.53;4972437;28;20037;-88
2023/12/19 08:57:48;;;;;;;0.20;0.20;;;;;;;13.09;44.25;102304.88;4957956;28;20413;-88
2023/12/19 09:00:20;;;;;;;0.20;0.20;;;;;;;13.44;44.17;102335.75;4969030;28;20034;-89
2023/12/19 09:02:46;;;;;;;0.20;0.20;;;;;;;13.45;43.96;102327.03;4973292;28;20072;-92
2023/12/19 09:05:12;;;;;;;0.20;0.20;;;;;;;13.43;43.78;102318.47;4984624;28;20122;-89
2023/12/19 09:07:38;;;;;;;0.20;0.20;;;;;;;13.59;43.51;102323.16;4957047;28;20027;-93
2023/12/19 09:10:05;;;;;;;0.20;0.20;;;;;;;13.68;42.88;102312.44;4972445;28;20038;-87
2023/12/19 09:12:31;;;;;;;0.20;0.20;;;;;;;13.80;42.11;102311.97;4971480;28;20105;-93
2023/12/19 09:14:58;;;;;;;0.20;0.20;;;;;;;13.82;41.97;102315.38;4958457;28;20033;-89
2023/12/19 09:17:23;;;;;;;0.13;0.13;;;;;;;13.71;41.78;102273.28;4989150;28;20500;-90
2023/12/19 09:19:49;;;;;;;0.20;0.20;;;;;;;14.00;41.50;102295.66;4983789;28;20023;-91
2023/12/19 09:22:14;;;;;;;0.20;0.20;;;;;;;14.00;41.41;102299.09;4989945;28;20084;-91
2023/12/19 09:24:40;;;;;;;0.20;0.20;;;;;;;13.98;41.46;102277.50;4984876;28;20089;-92
2023/12/19 09:27:05;;;;;;;0.20;0.20;;;;;;;14.12;41.15;102281.34;4974756;28;20061;-94
2023/12/19 09:29:32;;;;;;;0.13;0.13;;;;;;;14.18;41.49;102276.75;4974004;28;20665;-91
2023/12/19 09:32:00;;;;;;;0.10;0.10;;;;;;;14.27;40.96;102276.41;4989663;28;20046;-85
2023/12/19 09:34:26;;;;;;;0.20;0.20;;;;;;;14.38;41.07;102275.16;4970708;28;20480;-90
2023/12/19 09:36:51;;;;;;;0.20;0.20;;;;;;;14.43;40.87;102275.81;4948761;28;20066;-92
2023/12/19 09:39:17;;;;;;;0.10;0.10;;;;;;;14.37;40.48;102234.41;4975291;28;20041;-88
2023/12/19 09:41:42;;;;;;;0.20;0.20;;;;;;;14.64;41.01;102249.78;4993811;28;20060;-88
2023/12/19 09:44:08;;;;;;;0.20;0.20;;;;;;;14.66;39.80;102247.16;4959803;28;20122;-88
2023/12/19 09:46:33;;;;;;;0.20;0.20;;;;;;;14.73;40.46;102237.31;4977352;28;20031;-87
2023/12/19 09:49:00;;;;;;;0.20;0.20;;;;;;;14.86;39.59;102251.56;4994963;28;20035;-90
2023/12/19 09:51:36;;;;;;;0.20;0.20;;;;;;;14.90;39.24;102242.69;4960484;28;20026;-91
2023/12/19 09:54:02;;;;;;;0.10;0.10;;;;;;;14.90;39.31;102240.91;4974246;28;20034;-94
2023/12/19 09:56:28;;;;;;;0.20;0.20;;;;;;;14.96;39.66;102244.19;4970358;28;20551;-86
2023/12/19 09:58:56;;;;;;;0.20;0.20;;;;;;;14.93;39.19;102232.13;4970974;28;20086;-89
2023/12/19 10:01:22;;;;;;;0.20;0.20;;;;;;;14.96;39.02;102208.56;4974216;28;20027;-92
2023/12/19 10:03:49;;;;;;;0.20;0.20;;;;;;;15.02;38.88;102223.91;4974395;28;20500;-86
2023/12/19 10:06:17;;;;;;;0.20;0.20;;;;;;;15.15;39.51;102219.91;4976101;28;20475;-88
2023/12/19 10:08:43;;;;;;;0.20;0.20;;;;;;;15.31;39.00;102219.22;4955591;28;20034;-87
2023/12/19 10:11:14;;;;;;;0.20;0.20;;;;;;;15.28;38.74;102206.34;4951834;28;20026;-93
2023/12/19 10:13:39;;;;;;;0.10;0.10;;;;;;;15.49;37.98;102208.00;4952425;28;20488;-91
2023/12/19 10:16:09;;;;;;;0.10;0.10;;;;;;;15.49;38.43;102202.78;4977530;28;20045;-91
2023/12/19 10:18:36;;;;;;;0.20;0.20;;;;;;;15.56;38.46;102192.94;4973850;28;20078;-92
2023/12/19 10:21:13;;;;;;;0.20;0.20;;;;;;;15.70;38.23;102188.78;4958934;28;20034;-91
2023/12/19 10:23:42;;;;;;;0.10;0.10;;;;;;;15.81;37.88;102190.91;4964082;28;20117;-89
2023/12/19 10:26:08;;;;;;;0.10;0.10;;;;;;;15.88;37.85;102187.09;4961010;28;20034;-87
2023/12/19 10:28:34;;;;;;;0.10;0.10;;;;;;;15.87;37.93;102176.75;4959632;28;20096;-90
2023/12/19 10:31:06;;;;;;;0.20;0.20;;;;;;;16.01;37.73;102179.53;4956965;28;20429;-86
2023/12/19 10:33:45;;;;;;;0.20;0.20;;;;;;;16.03;36.96;102183.78;4986947;28;20031;-93
2023/12/19 10:36:30;;;;;;;0.20;0.20;;;;;;;16.07;36.69;102163.59;4971788;28;20058;-86
2023/12/19 10:38:57;;;;;;;0.20;0.20;;;;;;;16.24;36.82;102163.66;4965099;28;20030;-93
2023/12/19 10:41:27;;;;;;;0.20;0.20;;;;;;;16.22;36.63;102152.44;4975641;28;20074;-92
2023/12/19 10:43:56;;;;;;;0.10;0.10;;;;;;;16.34;36.49;102151.00;4965501;28;20046;-87
2023/12/19 10:46:24;;;;;;;0.10;0.10;;;;;;;16.34;36.47;102123.09;4971930;28;20066;-86
2023/12/19 10:48:54;;;;;;;0.20;0.20;;;;;;;16.43;36.15;102131.41;4966770;28;22367;-86
2023/12/19 10:51:30;;;;;;;0.20;0.20;;;;;;;16.49;35.47;102139.78;4962601;28;20473;-86
2023/12/19 10:54:14;;;;;;;0.20;0.20;;;;;;;16.54;35.89;102139.56;4988865;28;20037;-85
2023/12/19 10:56:53;;;;;;;0.13;0.13;;;;;;;16.49;35.87;102128.47;4968590;28;20056;-83
2023/12/19 10:59:48;;;;;;;0.20;0.20;;;;;;;16.60;35.82;102131.41;4958820;28;20530;-85
2023/12/19 11:02:17;;;;;;;0.20;0.20;;;;;;;16.68;35.54;102118.81;4975178;28;20061;-86
2023/12/19 11:04:42;;;;;;;0.20;0.20;;;;;;;16.67;35.41;102127.56;4965482;28;20040;-85
2023/12/19 11:07:11;;;;;;;0.10;0.10;;;;;;;16.76;35.45;102115.81;4970808;28;20031;-92
2023/12/19 11:09:37;;;;;;;0.20;0.20;;;;;;;16.89;34.79;102116.88;4968936;28;20037;-82
2023/12/19 11:12:03;;;;;;;0.10;0.10;;;;;;;16.79;35.33;102097.38;4971031;28;20039;-84
2023/12/19 11:14:29;;;;;;;0.10;0.10;;;;;;;17.00;34.99;102098.84;4956918;28;20026;-89
2023/12/19 11:17:08;;;;;;;0.20;0.20;;;;;;;17.18;35.19;102099.66;4970494;28;20452;-92
2023/12/19 11:19:42;;;;;;;0.20;0.20;;;;;;;17.16;34.46;102091.91;4957294;28;20098;-88
2023/12/19 11:22:10;;;;;;;0.20;0.20;;;;;;;17.28;34.67;102087.78;4957184;28;20092;-82
2023/12/19 11:24:37;;;;;;;0.20;0.20;;;;;;;17.26;34.24;102087.03;4973651;28;20030;-95
2023/12/19 11:27:16;;;;;;;0.20;0.20;;;;;;;17.30;34.02;102075.47;4973790;28;20035;-87